Aérodrome :
LOGIN :

S'inscrire | Disclaimer

   EN    FR    IT 

 










Légende :    VFR   VFR Marginal   IFR   IFR Intensif   IFR Très Intensif
Visi : 
Plafond : 
>= 8 km
>= 3000ft
5 à 8 km
1000 à 3000 ft
1500m à 5 km
500 à 1000 ft
800 à 1500m
200 à 500 ft
< 800m
< 200 ft
Symboles :   Orages  Brouillard  Fortes neiges  Fortes précipitations  Vent > 20 kt
SIGMETs :   Divers  Orages  Givrage  Turbulence  Onde Orograph.  Cendres Volcan.







- Altitude de l'aérodrome : 106 ft
- Code IATA : NRN


EDLV - Weeze

DERNIER METAR :
  • 220720Z VRB02KT 0200 R27/0225N FG VV/// 07/07 Q1031

METARs EXPIRÉS :
  • 220650Z VRB02KT 0200 R27/0250N FG VV/// 07/07 Q1031
  • 220620Z VRB02KT 0200 R27/0275N FG VV/// 07/07 Q1031
  • 220550Z VRB03KT 0250 R27/0300V0400N FG VV/// 07/07 Q1031
  • 220520Z VRB02KT 0300 R27/0400N FG VV/// 07/07 Q1030
  • 220450Z VRB02KT 0400 R27/0450N FG VV/// 07/07 Q1031

TAF TAF EDLV
Valide du 22 à 06h jusqu'au 23 à 06h UTC


220500Z 2206/2306 VRB03KT 1200 BR BKN004
TEMPO 2206/2208 0100 FG OVC001
BECMG 2208/2210 4000 BR BKN008
BECMG 2210/2212 CAVOK
TEMPO 2211/2217 16006KT
BECMG 2303/2306 4000 BR
PROB30
TEMPO 2304/2306 2000 BR BKN008
Pas de NOTAMs connus pour ce terrain.



MET'MAP, la Météo Aéronautique d'un coup d'oeil ! - Copyright ORBIFLY Décembre 2007 - Disclaimer

ORBIFLY MET'MAP TEAM :

Programmation & Développement : Alexandra Zaïnal
Conception & Développement : Baudouin d'Aumeries
Co-Programmation & Développement : Marc-Olivier Méhu
Soutien technique & logistique : Manuel Goepfert

Contact : metmap@orbifly.com




SOURCES & CREDITS :

   NOAA